Time;durP1;ratioP1;P1;durP2;ratioP2;P2;SDS_P1;SDS_P2;PMS_P1;PMS_P2;Temp;Humidity;BMP_temperature;BMP_pressure;BME280_temperature;BME280_humidity;BME280_pressure;Samples;Min_cycle;Max_cycle;Signal;HPM_P1;HPM_P2
2022/02/01 00:00:39;;;;;;;17.17;6.32;;;;;;;18.85;51.01;99667.59;4984758;28;20141;-47
2022/02/01 00:03:05;;;;;;;13.32;5.93;;;;;;;18.83;51.01;99667.81;4967073;28;20038;-42
2022/02/01 00:06:19;;;;;;;14.00;6.43;;;;;;;18.83;51.10;99674.91;4985055;28;20735;-45
2022/02/01 00:08:31;;;;;;;10.27;5.18;;;;;;;18.82;51.23;99673.28;4982214;28;20038;-49
2022/02/01 00:11:28;;;;;;;11.80;5.32;;;;;;;18.81;51.29;99677.75;4988243;28;20176;-50
2022/02/01 00:35:15;;;;;;;9.00;4.03;;;;;;;18.68;51.19;99696.34;4987105;28;20049;-48
2022/02/01 00:37:55;;;;;;;9.57;4.88;;;;;;;18.69;51.00;99699.78;4968019;28;20031;-46
2022/02/01 00:40:20;;;;;;;9.68;4.40;;;;;;;18.65;50.97;99715.25;4981705;28;20050;-43
2022/02/01 00:42:46;;;;;;;9.68;4.25;;;;;;;18.64;50.81;99699.63;4981436;28;20560;-42
2022/02/01 00:45:12;;;;;;;11.55;4.47;;;;;;;18.62;50.71;99699.84;4985192;28;20035;-49
2022/02/01 00:47:37;;;;;;;9.93;4.40;;;;;;;18.61;50.66;99700.84;4984424;28;20109;-43
2022/02/01 00:50:03;;;;;;;9.18;3.67;;;;;;;18.60;50.69;99709.78;4969170;28;20504;-45
2022/02/01 00:52:29;;;;;;;8.27;3.53;;;;;;;18.58;50.54;99707.34;4983542;28;20030;-45
2022/02/01 00:54:55;;;;;;;8.10;3.65;;;;;;;18.58;50.61;99709.16;4984523;28;20049;-42
2022/02/01 00:57:20;;;;;;;7.03;3.72;;;;;;;18.57;50.49;99708.34;4982566;28;20038;-42
2022/02/01 00:59:46;;;;;;;8.93;4.15;;;;;;;18.56;50.33;99716.50;4982854;28;20471;-44
2022/02/01 01:02:11;;;;;;;8.52;3.80;;;;;;;18.54;50.31;99706.16;4981630;28;20394;-46
2022/02/01 01:04:38;;;;;;;10.25;4.35;;;;;;;18.53;50.54;99701.91;4984581;28;20042;-41
2022/02/01 01:07:04;;;;;;;9.10;4.38;;;;;;;18.52;50.49;99707.38;4985340;28;20033;-47
2022/02/01 01:09:29;;;;;;;9.07;4.63;;;;;;;18.53;50.38;99730.91;4988108;28;20038;-45
2022/02/01 01:11:57;;;;;;;8.20;3.92;;;;;;;18.54;50.40;99724.63;4968180;28;20631;-45
2022/02/01 01:44:22;;;;;;;4.95;2.70;;;;;;;18.42;49.89;99736.09;4985068;28;20114;-47
2022/02/01 01:55:00;;;;;;;7.22;3.67;;;;;;;18.44;49.77;99739.28;4987393;28;20077;-45
2022/02/01 01:57:25;;;;;;;5.07;2.58;;;;;;;18.45;49.85;99731.16;4982754;28;20137;-47
2022/02/01 01:59:51;;;;;;;9.32;3.97;;;;;;;18.46;49.80;99734.63;4985795;28;20453;-49
2022/02/01 02:02:16;;;;;;;8.07;3.35;;;;;;;18.46;49.68;99724.06;4985323;28;20114;-48
2022/02/01 02:04:42;;;;;;;5.22;2.75;;;;;;;18.44;49.52;99724.28;4985555;28;20038;-40
2022/02/01 02:07:07;;;;;;;5.97;3.08;;;;;;;18.44;49.39;99737.47;4989604;28;20109;-41
2022/02/01 02:09:33;;;;;;;5.47;2.45;;;;;;;18.43;49.39;99737.72;4992508;28;20084;-49
2022/02/01 02:12:06;;;;;;;5.85;2.95;;;;;;;18.44;49.34;99749.84;5367192;23;20705;-47
2022/02/01 02:14:32;;;;;;;5.60;2.67;;;;;;;18.42;49.35;99747.44;4993026;28;20097;-44
2022/02/01 02:17:01;;;;;;;8.18;2.92;;;;;;;18.42;49.34;99754.56;4993262;28;20026;-42
2022/02/01 02:19:30;;;;;;;4.57;2.88;;;;;;;18.42;49.38;99751.91;4993139;28;20424;-43
2022/02/01 02:21:58;;;;;;;5.35;2.65;;;;;;;18.41;49.41;99742.38;4992962;28;20221;-45
2022/02/01 02:24:27;;;;;;;5.82;2.47;;;;;;;18.41;49.25;99752.94;4993181;28;20097;-44
2022/02/01 02:26:55;;;;;;;6.45;2.70;;;;;;;18.39;49.28;99749.69;4993163;28;20392;-47
2022/02/01 02:29:20;;;;;;;5.10;2.88;;;;;;;18.39;49.20;99758.41;4993231;28;20030;-40
2022/02/01 02:31:46;;;;;;;5.30;2.17;;;;;;;18.38;49.24;99754.16;4993345;28;20482;-46
2022/02/01 02:34:14;;;;;;;6.07;2.60;;;;;;;18.37;49.10;99749.91;4992880;28;20042;-46
2022/02/01 02:36:45;;;;;;;5.93;2.60;;;;;;;18.37;49.17;99746.47;4991117;28;20280;-43
2022/02/01 02:47:03;;;;;;;4.70;2.38;;;;;;;18.34;49.20;99773.25;4993270;28;20529;-47
2022/02/01 02:49:28;;;;;;;3.78;2.28;;;;;;;18.32;48.97;99777.94;4992364;28;20201;-39
2022/02/01 02:51:54;;;;;;;3.90;2.33;;;;;;;18.32;49.02;99793.75;4992876;28;20096;-47
2022/02/01 02:54:23;;;;;;;3.83;1.92;;;;;;;18.31;48.95;99794.78;4993187;28;20026;-43
2022/02/01 02:56:51;;;;;;;4.50;2.55;;;;;;;18.30;48.84;99795.78;4992677;28;20402;-46
2022/02/01 02:59:17;;;;;;;4.47;1.80;;;;;;;18.29;48.73;99800.25;4993222;28;20397;-45
2022/02/01 03:01:48;;;;;;;3.70;2.20;;;;;;;18.28;48.80;99805.75;4992735;28;20019;-43
2022/02/01 03:04:19;;;;;;;4.10;2.17;;;;;;;18.25;48.78;99806.97;4976055;28;20030;-44
2022/02/01 03:06:45;;;;;;;2.72;1.58;;;;;;;18.22;48.94;99802.91;4992832;28;20037;-47
2022/02/01 03:09:11;;;;;;;3.50;1.90;;;;;;;18.20;48.74;99801.50;4992998;28;20030;-40
2022/02/01 03:11:38;;;;;;;3.67;2.08;;;;;;;18.19;48.89;99797.25;4992195;28;20173;-44
2022/02/01 03:14:12;;;;;;;4.20;1.85;;;;;;;18.17;48.81;99802.75;4991542;28;20478;-45
2022/02/01 03:21:57;;;;;;;3.28;1.77;;;;;;;18.12;48.80;99794.66;4988773;28;20049;-42
2022/02/01 03:24:23;;;;;;;3.60;2.05;;;;;;;18.11;48.69;99798.31;4988165;28;20030;-49
2022/02/01 03:26:48;;;;;;;3.85;1.73;;;;;;;18.13;48.75;99798.09;4988439;28;20366;-45
2022/02/01 03:29:14;;;;;;;4.88;2.15;;;;;;;18.11;48.76;99798.31;4970829;28;20100;-45
2022/02/01 03:31:39;;;;;;;4.28;1.90;;;;;;;18.11;48.70;99798.31;4988399;28;20035;-46
2022/02/01 03:34:05;;;;;;;4.13;2.20;;;;;;;18.13;48.56;99798.09;4988507;28;20102;-39
2022/02/01 03:36:30;;;;;;;4.07;1.58;;;;;;;18.13;48.54;99814.72;4988097;28;20180;-44
2022/02/01 03:38:58;;;;;;;3.45;2.20;;;;;;;18.14;48.49;99818.97;4987915;28;20381;-46
2022/02/01 03:41:23;;;;;;;3.95;1.95;;;;;;;18.14;48.28;99813.69;4988286;28;20422;-40
2022/02/01 03:43:49;;;;;;;4.40;1.88;;;;;;;18.14;48.11;99812.88;4970469;28;20035;-44
2022/02/01 03:46:15;;;;;;;4.35;2.00;;;;;;;18.14;48.27;99807.63;4988181;28;20481;-45
2022/02/01 03:48:40;;;;;;;2.33;1.50;;;;;;;18.13;48.16;99806.81;4988030;28;20022;-44
2022/02/01 03:51:06;;;;;;;3.42;2.03;;;;;;;18.12;48.38;99794.66;4987763;28;20038;-44
2022/02/01 03:53:31;;;;;;;4.53;2.28;;;;;;;18.11;48.26;99793.03;4988170;28;20030;-39
2022/02/01 03:55:57;;;;;;;2.40;1.70;;;;;;;18.11;48.15;99800.13;4987880;28;20041;-41
2022/02/01 03:58:22;;;;;;;3.67;1.95;;;;;;;18.10;48.15;99806.41;4987878;28;20037;-42
2022/02/01 04:00:48;;;;;;;3.22;1.75;;;;;;;18.09;48.21;99813.50;4987895;28;20385;-46
2022/02/01 04:03:13;;;;;;;3.15;1.73;;;;;;;18.08;48.23;99817.16;4988126;28;20030;-46
2022/02/01 04:05:39;;;;;;;2.28;1.13;;;;;;;18.07;48.16;99823.47;4987589;28;20053;-41
2022/02/01 04:08:04;;;;;;;2.42;1.38;;;;;;;18.06;48.27;99821.03;4988064;28;20390;-42
2022/02/01 04:10:30;;;;;;;2.35;1.38;;;;;;;18.04;48.43;99815.97;4987390;28;20089;-40
2022/02/01 04:12:57;;;;;;;4.45;1.77;;;;;;;18.04;48.24;99812.53;4948360;28;1160318;-47
2022/02/01 04:15:25;;;;;;;2.50;1.40;;;;;;;18.04;48.27;99812.53;4988789;28;20414;-46
2022/02/01 04:17:51;;;;;;;2.88;1.55;;;;;;;18.04;48.23;99812.53;4988733;28;20104;-43
2022/02/01 04:20:17;;;;;;;2.85;1.50;;;;;;;18.04;48.24;99821.22;4988206;28;20117;-47
2022/02/01 04:22:42;;;;;;;1.98;1.30;;;;;;;18.04;48.26;99828.34;4988165;28;20254;-43
2022/02/01 04:25:08;;;;;;;2.58;1.30;;;;;;;18.03;48.27;99822.25;4988695;28;20050;-42
2022/02/01 04:27:34;;;;;;;2.58;1.25;;;;;;;18.04;48.16;99831.78;4987958;28;20429;-45
2022/02/01 04:30:09;;;;;;;2.83;1.50;;;;;;;18.01;48.27;99832.19;4988096;28;20026;-44
2022/02/01 04:32:49;;;;;;;;;;;;;;;17.92;48.29;99841.38;4988890;28;20034;-41
2022/02/01 04:35:18;;;;;;;3.97;1.42;;;;;;;17.96;48.38;99834.63;4987461;28;19945;-44
2022/02/01 04:37:43;;;;;;;5.07;1.70;;;;;;;17.99;48.22;99831.59;4988734;28;20106;-43
2022/02/01 04:40:12;;;;;;;2.47;1.38;;;;;;;18.00;48.12;99842.94;4987725;28;20028;-51
2022/02/01 04:42:40;;;;;;;2.15;1.27;;;;;;;17.99;47.97;99833.41;4988201;28;20044;-39
2022/02/01 04:45:08;;;;;;;2.97;1.40;;;;;;;17.99;47.87;99847.41;4988099;28;20482;-46
2022/02/01 04:47:35;;;;;;;2.67;1.52;;;;;;;18.00;47.97;99856.94;4987696;28;20121;-44
2022/02/01 04:50:04;;;;;;;2.50;1.35;;;;;;;17.99;48.06;99867.69;4987896;28;20104;-43
2022/02/01 04:52:31;;;;;;;2.60;1.15;;;;;;;17.99;47.90;99871.13;4988042;28;20125;-41
2022/02/01 04:54:57;;;;;;;1.90;1.20;;;;;;;17.98;48.05;99872.16;4970129;28;20053;-46
2022/02/01 04:57:23;;;;;;;2.63;1.42;;;;;;;17.98;47.89;99871.34;4987740;28;20037;-43
2022/02/01 04:59:48;;;;;;;2.97;1.17;;;;;;;17.98;48.00;99882.69;4988186;28;20386;-40
2022/02/01 05:02:14;;;;;;;2.50;1.30;;;;;;;17.96;47.96;99879.44;4987446;28;20078;-47
2022/02/01 05:04:39;;;;;;;2.65;1.42;;;;;;;17.97;47.99;99880.25;4987328;28;20035;-48
2022/02/01 05:07:05;;;;;;;2.30;0.90;;;;;;;17.95;48.11;99877.84;4987746;28;20034;-43
2022/02/01 05:09:32;;;;;;;1.20;0.85;;;;;;;17.94;47.95;99881.50;4987879;28;20030;-43
2022/02/01 05:12:00;;;;;;;2.30;1.27;;;;;;;17.91;48.04;99866.09;4987415;28;20517;-46
2022/02/01 05:14:28;;;;;;;1.38;0.73;;;;;;;17.89;48.09;99868.94;4969704;28;20070;-41
2022/02/01 05:19:46;;;;;;;1.40;0.85;;;;;;;17.90;48.06;99880.28;4987585;28;20151;-42
2022/02/01 05:22:14;;;;;;;1.48;0.60;;;;;;;17.92;48.02;99893.28;4972143;28;20090;-44
2022/02/01 05:24:40;;;;;;;2.42;1.00;;;;;;;17.94;48.15;99894.69;4987358;28;20038;-47
2022/02/01 05:27:10;;;;;;;1.65;0.93;;;;;;;17.96;48.23;99894.47;4986829;28;20026;-42
2022/02/01 05:29:36;;;;;;;2.20;1.15;;;;;;;17.97;48.35;99899.50;4986833;28;20097;-39
2022/02/01 05:32:14;;;;;;;2.05;0.85;;;;;;;17.99;48.37;99902.75;4987389;28;20034;-44
2022/02/01 05:34:40;;;;;;;1.70;1.00;;;;;;;18.03;48.52;99905.78;4987228;28;20035;-40
2022/02/01 05:37:05;;;;;;;2.63;0.82;;;;;;;18.04;48.63;99899.50;4986721;28;20112;-43
2022/02/01 05:39:31;;;;;;;1.70;0.90;;;;;;;18.08;48.62;99909.44;4987037;28;20057;-42
2022/02/01 05:41:58;;;;;;;1.75;1.00;;;;;;;18.11;48.60;99919.56;4986215;28;20031;-41
2022/02/01 05:44:24;;;;;;;1.73;1.00;;;;;;;18.14;48.75;99916.50;4986913;28;20134;-43
2022/02/01 05:46:49;;;;;;;1.50;0.68;;;;;;;18.17;48.68;99924.00;4987042;28;20113;-42
2022/02/01 05:49:17;;;;;;;1.63;0.80;;;;;;;18.20;48.54;99928.88;4986708;28;20608;-41
2022/02/01 05:51:42;;;;;;;1.88;0.93;;;;;;;18.24;48.45;99926.63;4986592;28;20034;-44
2022/02/01 05:54:08;;;;;;;1.63;0.70;;;;;;;18.27;48.46;99928.06;4986908;28;20095;-38
2022/02/01 05:56:33;;;;;;;1.20;0.60;;;;;;;18.32;48.39;99933.50;4986889;28;20034;-47
2022/02/01 05:58:59;;;;;;;2.13;0.73;;;;;;;18.35;48.27;99941.81;4986723;28;20053;-49
2022/02/01 06:01:24;;;;;;;2.60;0.90;;;;;;;18.38;48.13;99949.31;4984712;28;20469;-41
2022/02/01 06:03:50;;;;;;;3.25;1.02;;;;;;;18.42;48.11;99952.34;4986045;28;20160;-43
2022/02/01 06:06:15;;;;;;;1.05;0.57;;;;;;;18.45;48.01;99967.75;4987614;28;20026;-40
2022/02/01 06:08:41;;;;;;;1.85;0.90;;;;;;;18.46;48.01;99964.91;4986560;28;20501;-43
2022/02/01 06:11:07;;;;;;;3.05;1.15;;;;;;;18.49;47.76;99964.47;4985375;28;20034;-43
2022/02/01 06:13:36;;;;;;;3.75;1.10;;;;;;;18.52;47.83;99971.16;4969106;28;20038;-41
2022/02/01 06:16:05;;;;;;;1.30;0.60;;;;;;;18.53;47.83;99970.16;4981387;28;20088;-41
2022/02/01 06:18:31;;;;;;;9.73;1.05;;;;;;;18.55;47.81;99968.13;4986318;28;20030;-42
2022/02/01 06:20:57;;;;;;;1.63;0.80;;;;;;;18.56;47.93;99975.81;4988044;28;20072;-43
2022/02/01 06:23:22;;;;;;;1.90;0.95;;;;;;;18.58;47.79;99983.53;4996610;28;20272;-41
2022/02/01 06:25:49;;;;;;;1.77;1.20;;;;;;;18.58;47.71;99983.53;4985972;28;20035;-47
2022/02/01 06:28:20;;;;;;;2.15;0.75;;;;;;;18.60;47.64;99986.81;4986068;28;20026;-40
2022/02/01 06:30:46;;;;;;;1.48;0.75;;;;;;;18.61;47.52;99988.44;4983172;28;20038;-41
2022/02/01 06:33:13;;;;;;;2.22;0.90;;;;;;;18.63;47.57;99998.78;4985748;28;20034;-46
2022/02/01 06:35:39;;;;;;;2.08;0.80;;;;;;;18.64;47.49;99992.47;4985777;28;20555;-48
2022/02/01 06:38:04;;;;;;;1.50;0.77;;;;;;;18.64;47.49;100001.19;4985821;28;20030;-49
2022/02/01 06:40:30;;;;;;;2.17;1.10;;;;;;;18.66;47.36;100004.44;4985588;28;20036;-46
2022/02/01 06:42:56;;;;;;;2.00;0.63;;;;;;;18.69;47.35;100021.69;4987092;28;20068;-44
2022/02/01 06:45:22;;;;;;;1.55;0.60;;;;;;;18.69;47.12;100027.78;4986500;28;20045;-39
2022/02/01 06:47:47;;;;;;;1.15;0.60;;;;;;;18.72;47.10;100032.63;4985021;28;20031;-44
2022/02/01 06:50:16;;;;;;;1.38;0.90;;;;;;;18.73;47.15;100039.53;4986200;28;20073;-47
2022/02/01 06:52:41;;;;;;;1.48;0.73;;;;;;;18.75;47.16;100050.69;4969479;28;20046;-46
2022/02/01 06:55:07;;;;;;;1.80;0.60;;;;;;;18.79;47.11;100053.72;4989403;28;20042;-42
2022/02/01 06:57:37;;;;;;;1.00;0.77;;;;;;;18.79;46.79;100054.53;4990969;28;20026;-48
2022/02/01 07:00:08;;;;;;;0.73;0.50;;;;;;;18.81;46.86;100060.44;4988920;28;20042;-43
2022/02/01 07:02:33;;;;;;;1.40;0.70;;;;;;;18.82;46.85;100067.34;4984783;28;20076;-45
2022/02/01 07:04:59;;;;;;;1.17;0.60;;;;;;;18.84;46.67;100073.22;4985779;28;20769;-42
2022/02/01 07:07:25;;;;;;;1.48;0.60;;;;;;;18.89;46.57;100076.03;4984450;28;20117;-47
2022/02/01 07:09:50;;;;;;;1.50;0.85;;;;;;;18.92;46.54;100079.25;4990630;28;20480;-43
2022/02/01 07:12:16;;;;;;;1.35;0.60;;;;;;;18.94;46.52;100080.66;4986473;28;20054;-46
2022/02/01 07:14:41;;;;;;;1.00;0.52;;;;;;;18.93;46.56;100086.97;4990123;28;20439;-46
2022/02/01 07:17:07;;;;;;;3.17;0.50;;;;;;;18.93;46.55;100091.44;4988882;28;20068;-49
2022/02/01 07:19:32;;;;;;;3.03;0.85;;;;;;;18.90;46.57;100088.19;4990214;28;20466;-45
2022/02/01 07:21:58;;;;;;;1.98;0.70;;;;;;;18.90;46.71;100101.38;4988853;28;20432;-42
2022/02/01 07:24:29;;;;;;;1.05;0.43;;;;;;;18.92;46.81;100103.81;5000719;28;20026;-44
2022/02/01 07:26:58;;;;;;;4.40;0.70;;;;;;;18.92;47.21;100116.22;4988835;28;20426;-45
2022/02/01 07:29:26;;;;;;;5.03;1.00;;;;;;;18.97;48.00;100114.56;4988342;28;20505;-49
2022/02/01 07:31:52;;;;;;;4.28;0.80;;;;;;;19.00;47.64;100124.72;4985348;28;20063;-43
2022/02/01 07:34:18;;;;;;;2.08;0.90;;;;;;;18.96;47.67;100126.16;4990041;28;20030;-50
2022/02/01 07:36:44;;;;;;;1.60;0.90;;;;;;;18.94;47.87;100114.19;4989662;28;20532;-45
2022/02/01 07:39:11;;;;;;;1.73;0.98;;;;;;;18.93;48.38;100133.66;4987983;28;20618;-43
2022/02/01 07:41:38;;;;;;;4.35;1.50;;;;;;;18.88;48.31;100140.41;4989290;28;20038;-40
2022/02/01 07:44:04;;;;;;;2.45;0.80;;;;;;;18.84;48.25;100139.19;4989306;28;20030;-44
2022/02/01 07:46:31;;;;;;;2.35;0.90;;;;;;;18.80;48.24;100135.34;4990216;28;20405;-39
2022/02/01 07:48:56;;;;;;;1.85;0.57;;;;;;;18.80;48.24;100121.34;4970221;28;20035;-49
2022/02/01 07:51:22;;;;;;;2.78;0.70;;;;;;;18.76;48.19;100120.94;4989069;28;20889;-41
2022/02/01 07:53:47;;;;;;;2.75;0.70;;;;;;;18.73;48.15;100123.97;4990220;28;20125;-52
2022/02/01 07:56:13;;;;;;;1.10;0.63;;;;;;;18.74;48.05;100122.16;4987407;28;20022;-42
2022/02/01 07:58:39;;;;;;;5.10;1.00;;;;;;;18.72;47.89;100116.28;4987869;28;20451;-43
2022/02/01 08:01:06;;;;;;;1.83;0.73;;;;;;;18.71;47.99;100112.00;4989241;28;20090;-44
2022/02/01 08:03:31;;;;;;;1.55;0.65;;;;;;;18.69;47.91;100116.69;4988303;28;20066;-39
2022/02/01 08:05:57;;;;;;;2.97;0.60;;;;;;;18.67;47.89;100114.25;4987929;28;20062;-43
2022/02/01 08:08:22;;;;;;;2.65;0.90;;;;;;;18.68;48.00;100126.44;4988389;28;20134;-47
2022/02/01 08:10:49;;;;;;;2.97;0.90;;;;;;;18.72;48.04;100122.34;4987231;28;20496;-40
2022/02/01 08:21:25;;;;;;;2.88;0.82;;;;;;;18.69;47.71;100135.16;4975667;28;20073;-47
2022/02/01 08:23:51;;;;;;;4.88;0.88;;;;;;;18.68;47.59;100131.69;4985338;28;20132;-43
2022/02/01 08:26:16;;;;;;;1.85;0.95;;;;;;;18.69;47.36;100145.72;4995957;28;20128;-39
2022/02/01 08:28:42;;;;;;;4.05;0.60;;;;;;;18.69;47.49;100146.53;4989428;28;20446;-51
2022/02/01 08:31:08;;;;;;;2.05;0.40;;;;;;;18.69;47.52;100141.25;4989540;28;20026;-47
2022/02/01 08:33:34;;;;;;;3.75;0.90;;;;;;;18.69;47.34;100141.25;4969549;28;20077;-50
2022/02/01 08:35:59;;;;;;;2.20;0.60;;;;;;;18.69;47.31;100153.63;4976900;28;20062;-50
2022/02/01 08:38:25;;;;;;;1.38;0.60;;;;;;;18.66;47.25;100151.38;4971259;28;20489;-47
2022/02/01 08:40:50;;;;;;;1.48;0.75;;;;;;;18.65;47.31;100152.41;4989054;28;20441;-41
2022/02/01 08:43:18;;;;;;;2.20;0.60;;;;;;;18.62;47.24;100164.19;4987279;28;20034;-48
2022/02/01 08:45:44;;;;;;;2.45;0.50;;;;;;;18.61;47.27;100165.19;4988590;28;20401;-46
2022/02/01 08:48:09;;;;;;;2.13;0.45;;;;;;;18.58;47.12;100158.47;4989014;28;20038;-44
2022/02/01 08:50:36;;;;;;;3.67;0.98;;;;;;;18.56;47.21;100160.50;4989309;28;20022;-45
2022/02/01 08:53:18;;;;;;;0.95;0.50;;;;;;;18.55;47.14;100164.16;4988909;28;20042;-43
2022/02/01 08:58:16;;;;;;;2.58;0.40;;;;;;;18.52;47.04;100163.75;4988433;28;20041;-46
2022/02/01 09:00:41;;;;;;;3.08;0.52;;;;;;;18.52;47.02;100179.56;4988622;28;20022;-52
2022/02/01 09:03:07;;;;;;;1.63;0.60;;;;;;;18.51;46.95;100177.94;4989086;28;20035;-44
2022/02/01 09:05:33;;;;;;;2.80;0.70;;;;;;;18.50;46.89;100173.69;4987234;28;20091;-49
2022/02/01 09:08:03;;;;;;;1.10;0.60;;;;;;;18.50;46.71;100179.78;4986950;28;20062;-44
2022/02/01 09:10:29;;;;;;;3.10;0.60;;;;;;;18.51;46.72;100178.75;4986939;28;20035;-39
2022/02/01 09:12:55;;;;;;;1.23;0.55;;;;;;;18.53;46.58;100160.09;4988026;28;20485;-47
2022/02/01 09:15:21;;;;;;;1.20;0.65;;;;;;;18.53;46.44;100170.66;4987803;28;20030;-45
2022/02/01 09:17:48;;;;;;;1.70;0.80;;;;;;;18.53;46.44;100168.00;4988728;28;20072;-44
2022/02/01 09:20:13;;;;;;;2.20;0.57;;;;;;;18.54;46.29;100188.09;4986099;28;20085;-47
2022/02/01 09:22:39;;;;;;;1.58;0.57;;;;;;;18.54;46.18;100185.44;4992951;28;20030;-47
2022/02/01 09:25:06;;;;;;;1.55;0.60;;;;;;;18.55;46.13;100179.16;4984453;28;20042;-43
2022/02/01 09:27:31;;;;;;;3.08;0.80;;;;;;;18.53;45.80;100155.63;4982174;28;20034;-44
2022/02/01 09:29:57;;;;;;;1.13;0.60;;;;;;;18.54;45.70;100157.25;4983926;28;20540;-47
2022/02/01 09:32:24;;;;;;;3.85;0.90;;;;;;;18.55;45.79;100179.16;4981122;28;20052;-42
2022/02/01 09:34:50;;;;;;;3.40;0.73;;;;;;;18.56;46.19;100172.88;4981497;28;20030;-44
2022/02/01 09:37:16;;;;;;;3.42;0.70;;;;;;;18.59;46.51;100183.03;4985408;28;20109;-44
2022/02/01 09:39:42;;;;;;;6.70;0.85;;;;;;;18.60;46.97;100182.03;4966049;28;20121;-51
2022/02/01 09:42:08;;;;;;;9.95;0.80;;;;;;;18.60;46.89;100187.31;4984657;28;20037;-45
2022/02/01 09:44:33;;;;;;;7.40;0.85;;;;;;;18.61;47.25;100182.84;4983772;28;20543;-49
2022/02/01 09:46:59;;;;;;;2.75;0.80;;;;;;;18.60;47.57;100191.75;4984522;28;20041;-48
2022/02/01 09:49:25;;;;;;;12.20;0.80;;;;;;;18.60;47.81;100187.31;4987759;28;20037;-49
2022/02/01 09:51:57;;;;;;;5.82;0.75;;;;;;;18.61;48.29;100181.03;4986983;28;20524;-49
2022/02/01 09:54:25;;;;;;;6.25;0.70;;;;;;;18.66;48.71;100167.22;4971105;28;20045;-47
2022/02/01 09:56:52;;;;;;;2.88;0.50;;;;;;;18.66;48.74;100172.50;4983099;28;20049;-47
2022/02/01 09:59:31;;;;;;;4.97;0.90;;;;;;;18.65;49.00;100192.81;4966276;28;20030;-44
2022/02/01 10:02:07;;;;;;;5.18;0.60;;;;;;;18.64;49.16;100193.81;4983792;28;20042;-46
2022/02/01 10:04:33;;;;;;;6.20;0.77;;;;;;;18.64;49.16;100196.44;4986867;28;20034;-46
2022/02/01 10:07:10;;;;;;;2.35;0.68;;;;;;;18.63;49.45;100194.81;4988913;28;20065;-44
2022/02/01 10:09:51;;;;;;;1.35;0.47;;;;;;;18.62;49.95;100189.75;4974116;28;20189;-45
2022/02/01 10:12:19;;;;;;;3.83;0.70;;;;;;;18.61;49.63;100193.41;4983287;28;20050;-41
2022/02/01 10:14:53;;;;;;;7.28;0.70;;;;;;;18.61;49.62;100193.41;4983476;28;20022;-42
2022/02/01 10:17:30;;;;;;;2.67;0.52;;;;;;;18.60;49.42;100187.31;4984285;28;20101;-43
2022/02/01 10:19:56;;;;;;;4.18;0.80;;;;;;;18.60;49.29;100189.94;4967728;28;20037;-42
2022/02/01 10:22:32;;;;;;;9.27;0.80;;;;;;;18.56;49.24;100183.44;4983404;28;20030;-41
2022/02/01 10:24:59;;;;;;;5.90;0.65;;;;;;;18.54;49.29;100178.34;4983896;28;20070;-43
2022/02/01 10:27:27;;;;;;;2.53;0.50;;;;;;;18.52;49.37;100179.56;4987244;28;20037;-42
2022/02/01 10:30:06;;;;;;;3.40;1.13;;;;;;;18.50;49.29;100182.41;4983328;28;20089;-44
2022/02/01 10:35:55;;;;;;;8.60;1.00;;;;;;;18.51;49.81;100183.22;4985583;28;20460;-42
2022/02/01 10:38:09;;;;;;;9.82;1.00;;;;;;;18.51;49.63;100185.84;4981305;28;20133;-46
2022/02/01 10:40:46;;;;;;;2.58;1.25;;;;;;;18.48;49.58;100173.06;4981754;28;20029;-43
2022/02/01 10:43:24;;;;;;;4.82;0.50;;;;;;;18.48;49.61;100167.78;4982408;28;20030;-40
2022/02/01 10:45:55;;;;;;;3.35;1.02;;;;;;;18.49;49.41;100169.41;4977616;28;20127;-46
2022/02/01 10:48:24;;;;;;;2.72;1.10;;;;;;;18.49;49.63;100180.78;4984255;28;20117;-41
2022/02/01 10:51:12;;;;;;;7.78;0.95;;;;;;;18.46;49.78;100183.81;4983885;28;20123;-40
2022/02/01 10:53:39;;;;;;;5.60;0.93;;;;;;;18.48;49.85;100175.72;4984385;28;20034;-40
2022/02/01 10:56:11;;;;;;;2.92;0.70;;;;;;;18.46;49.85;100177.75;4984502;28;20069;-41
2022/02/01 10:58:37;;;;;;;1.35;0.70;;;;;;;18.44;49.65;100174.50;4985847;28;20286;-44
2022/02/01 11:01:04;;;;;;;6.53;0.90;;;;;;;18.43;49.54;100160.50;4981881;28;20133;-43
2022/02/01 11:03:31;;;;;;;3.97;0.70;;;;;;;18.42;49.17;100166.00;4988011;28;20069;-38
2022/02/01 11:05:58;;;;;;;4.53;0.73;;;;;;;18.39;49.34;100156.66;4991439;28;20065;-40
2022/02/01 11:08:29;;;;;;;5.00;0.80;;;;;;;18.41;49.32;100156.47;4988721;28;20532;-41
2022/02/01 11:10:57;;;;;;;3.42;0.85;;;;;;;18.41;49.31;100159.09;4988594;28;20486;-39
2022/02/01 11:13:24;;;;;;;4.47;1.15;;;;;;;18.40;49.32;100158.28;4992310;28;20041;-41
2022/02/01 11:16:03;;;;;;;4.28;0.77;;;;;;;18.37;49.31;100149.97;4999669;28;20034;-40
2022/02/01 11:18:29;;;;;;;6.75;0.75;;;;;;;18.38;49.27;100151.59;4987466;28;20038;-37
2022/02/01 11:21:15;;;;;;;3.65;0.60;;;;;;;18.34;49.22;100145.09;4987524;28;20026;-40
2022/02/01 11:23:55;;;;;;;3.13;0.50;;;;;;;18.34;49.13;100143.28;4971601;28;20425;-39
2022/02/01 11:26:38;;;;;;;5.82;0.77;;;;;;;18.33;49.22;100138.19;4988040;28;20030;-40
2022/02/01 11:31:51;;;;;;;2.95;0.50;;;;;;;18.34;49.03;100132.72;4988782;28;20525;-39
2022/02/01 11:34:30;;;;;;;1.27;0.52;;;;;;;18.33;48.81;100122.38;4992673;28;20054;-38
2022/02/01 11:37:07;;;;;;;1.85;0.40;;;;;;;18.34;48.85;100121.34;4988445;28;20037;-41
2022/02/01 11:39:33;;;;;;;2.13;0.50;;;;;;;18.34;48.68;100111.63;4955607;28;20030;-38
2022/02/01 11:42:00;;;;;;;1.42;0.43;;;;;;;18.35;48.66;100110.59;4987890;28;20053;-41
2022/02/01 11:44:35;;;;;;;2.72;0.60;;;;;;;18.37;48.64;100110.41;4988453;28;20238;-39
2022/02/01 11:47:11;;;;;;;2.13;0.52;;;;;;;18.35;48.60;100104.53;4988117;28;20053;-40
2022/02/01 11:49:49;;;;;;;1.20;0.40;;;;;;;18.36;48.78;100100.88;4986025;28;20027;-45
2022/02/01 11:52:16;;;;;;;3.15;0.73;;;;;;;18.34;48.89;100102.91;4989454;28;20026;-41
2022/02/01 11:54:45;;;;;;;3.00;0.55;;;;;;;18.34;48.31;100103.72;4990228;28;20037;-38
2022/02/01 11:57:29;;;;;;;2.80;0.60;;;;;;;18.35;48.41;100110.59;4987955;28;20567;-41
2022/02/01 12:00:08;;;;;;;1.35;0.40;;;;;;;18.34;48.26;100097.63;4974833;28;20038;-40
2022/02/01 12:02:40;;;;;;;3.17;0.70;;;;;;;18.36;48.20;100079.78;4987737;28;20500;-37
2022/02/01 12:05:11;;;;;;;1.58;0.38;;;;;;;18.34;48.09;100079.16;4987625;28;20477;-40
2022/02/01 12:08:02;;;;;;;1.55;0.60;;;;;;;18.31;48.17;100074.28;4983779;28;20513;-38
2022/02/01 12:10:28;;;;;;;1.23;0.43;;;;;;;18.29;48.16;100065.78;4967015;28;20073;-38
2022/02/01 12:13:00;;;;;;;2.13;0.38;;;;;;;18.27;48.15;100067.81;4987878;28;20070;-40
2022/02/01 12:15:34;;;;;;;1.88;0.40;;;;;;;18.26;47.95;100074.09;4984626;28;20045;-37
2022/02/01 12:18:15;;;;;;;1.48;0.47;;;;;;;18.21;47.71;100057.06;4987028;28;20041;-43
2022/02/01 12:20:43;;;;;;;2.28;0.47;;;;;;;18.21;47.85;100067.59;4988018;28;20109;-39
2022/02/01 12:23:22;;;;;;;1.08;0.40;;;;;;;18.18;47.76;100073.28;4987272;28;20038;-43
2022/02/01 12:25:48;;;;;;;1.13;0.30;;;;;;;18.20;47.80;100065.97;4988213;28;20354;-37
2022/02/01 12:28:21;;;;;;;1.05;0.40;;;;;;;18.19;47.72;100074.91;4993127;28;20100;-42
2022/02/01 12:30:47;;;;;;;3.17;0.50;;;;;;;18.21;48.29;100075.50;4985616;28;20207;-38
2022/02/01 12:33:21;;;;;;;3.80;0.65;;;;;;;18.35;49.85;100073.69;4985112;28;20124;-40
2022/02/01 12:35:51;;;;;;;2.47;0.82;;;;;;;18.53;50.33;100071.19;4986980;28;20026;-39
2022/02/01 12:38:20;;;;;;;2.88;0.70;;;;;;;18.64;49.92;100067.16;4986291;28;20180;-41
2022/02/01 12:41:11;;;;;;;2.00;0.60;;;;;;;18.73;50.30;100060.66;4985196;28;20555;-43
2022/02/01 12:43:54;;;;;;;2.42;0.50;;;;;;;18.86;53.52;100055.34;4979924;28;20592;-41
2022/02/01 12:46:41;;;;;;;5.70;0.55;;;;;;;19.03;56.73;100054.84;4983919;28;20089;-52
2022/02/01 12:49:07;;;;;;;8.93;1.33;;;;;;;19.17;61.93;100056.44;4981782;28;20026;-52
2022/02/01 12:51:45;;;;;;;7.95;1.10;;;;;;;19.31;67.80;100060.63;4980802;28;21155;-39
2022/02/01 12:54:29;;;;;;;4.43;1.40;;;;;;;19.46;69.93;100055.03;4980662;28;20034;-50
2022/02/01 12:57:16;;;;;;;2.15;0.98;;;;;;;19.59;70.77;100052.34;4964373;28;20030;-40
2022/02/01 12:59:51;;;;;;;2.08;0.77;;;;;;;19.63;70.04;100055.38;4985245;28;20040;-40
2022/02/01 13:02:22;;;;;;;1.98;0.80;;;;;;;19.47;66.83;100060.13;4990283;28;20031;-47
2022/02/01 13:04:57;;;;;;;2.95;0.93;;;;;;;19.31;64.94;100065.09;4967825;28;20184;-47
2022/02/01 13:13:55;;;;;;;2.67;0.50;;;;;;;19.02;61.21;100061.97;4983106;28;20685;-43